sensor_id;sensor_type;location;lat;lon;timestamp;P1;durP1;ratioP1;P2;durP2;ratioP2
80541;SDS011;69870;51.460;8.842;2023-06-22T00:01:53;36.00;;;24.45;;
80541;SDS011;69870;51.460;8.842;2023-06-22T00:04:21;30.42;;;25.83;;
80541;SDS011;69870;51.460;8.842;2023-06-22T00:06:47;32.92;;;24.80;;
80541;SDS011;69870;51.460;8.842;2023-06-22T00:09:13;31.85;;;26.33;;
80541;SDS011;69870;51.460;8.842;2023-06-22T00:11:40;42.60;;;27.38;;
80541;SDS011;69870;51.460;8.842;2023-06-22T00:14:06;29.52;;;26.30;;
80541;SDS011;69870;51.460;8.842;2023-06-22T00:16:32;33.22;;;26.05;;
80541;SDS011;69870;51.460;8.842;2023-06-22T00:18:59;34.53;;;26.65;;
80541;SDS011;69870;51.460;8.842;2023-06-22T00:21:28;31.27;;;27.88;;
80541;SDS011;69870;51.460;8.842;2023-06-22T00:23:54;30.27;;;24.55;;
80541;SDS011;69870;51.460;8.842;2023-06-22T00:26:22;33.22;;;25.98;;
80541;SDS011;69870;51.460;8.842;2023-06-22T00:28:49;32.28;;;26.33;;
80541;SDS011;69870;51.460;8.842;2023-06-22T00:31:15;30.67;;;25.75;;
80541;SDS011;69870;51.460;8.842;2023-06-22T00:33:41;31.85;;;25.90;;
80541;SDS011;69870;51.460;8.842;2023-06-22T00:36:08;32.78;;;26.90;;
80541;SDS011;69870;51.460;8.842;2023-06-22T00:38:39;31.75;;;26.88;;
80541;SDS011;69870;51.460;8.842;2023-06-22T00:41:07;30.80;;;24.88;;
80541;SDS011;69870;51.460;8.842;2023-06-22T00:43:34;32.95;;;26.45;;
80541;SDS011;69870;51.460;8.842;2023-06-22T00:46:02;33.85;;;25.90;;
80541;SDS011;69870;51.460;8.842;2023-06-22T00:48:28;31.80;;;26.65;;
80541;SDS011;69870;51.460;8.842;2023-06-22T00:50:55;30.95;;;26.98;;
80541;SDS011;69870;51.460;8.842;2023-06-22T00:53:22;30.02;;;24.55;;
80541;SDS011;69870;51.460;8.842;2023-06-22T00:55:50;39.00;;;29.05;;
80541;SDS011;69870;51.460;8.842;2023-06-22T00:58:17;34.88;;;26.73;;
80541;SDS011;69870;51.460;8.842;2023-06-22T01:00:47;36.63;;;26.88;;
80541;SDS011;69870;51.460;8.842;2023-06-22T01:03:14;34.75;;;27.35;;
80541;SDS011;69870;51.460;8.842;2023-06-22T01:05:42;33.22;;;27.38;;
80541;SDS011;69870;51.460;8.842;2023-06-22T01:08:22;35.97;;;29.00;;
80541;SDS011;69870;51.460;8.842;2023-06-22T01:10:52;32.10;;;28.27;;
80541;SDS011;69870;51.460;8.842;2023-06-22T01:13:22;32.92;;;27.52;;
80541;SDS011;69870;51.460;8.842;2023-06-22T01:15:53;31.85;;;25.38;;
80541;SDS011;69870;51.460;8.842;2023-06-22T01:18:21;31.45;;;26.20;;
80541;SDS011;69870;51.460;8.842;2023-06-22T01:20:50;31.02;;;26.85;;
80541;SDS011;69870;51.460;8.842;2023-06-22T01:23:20;34.33;;;26.63;;
80541;SDS011;69870;51.460;8.842;2023-06-22T01:25:57;35.53;;;28.58;;
80541;SDS011;69870;51.460;8.842;2023-06-22T01:28:35;30.48;;;26.17;;
80541;SDS011;69870;51.460;8.842;2023-06-22T01:31:02;31.15;;;26.52;;
80541;SDS011;69870;51.460;8.842;2023-06-22T01:33:31;39.85;;;27.75;;
80541;SDS011;69870;51.460;8.842;2023-06-22T01:35:58;34.90;;;27.88;;
80541;SDS011;69870;51.460;8.842;2023-06-22T01:38:25;32.40;;;26.25;;
80541;SDS011;69870;51.460;8.842;2023-06-22T01:40:53;36.35;;;25.23;;
80541;SDS011;69870;51.460;8.842;2023-06-22T01:43:20;29.55;;;24.55;;
80541;SDS011;69870;51.460;8.842;2023-06-22T01:45:49;34.08;;;27.20;;
80541;SDS011;69870;51.460;8.842;2023-06-22T01:48:16;34.33;;;26.08;;
80541;SDS011;69870;51.460;8.842;2023-06-22T01:50:42;38.63;;;25.63;;
80541;SDS011;69870;51.460;8.842;2023-06-22T01:53:10;37.90;;;26.05;;
80541;SDS011;69870;51.460;8.842;2023-06-22T01:55:36;38.20;;;26.73;;
80541;SDS011;69870;51.460;8.842;2023-06-22T01:58:02;33.92;;;26.48;;
80541;SDS011;69870;51.460;8.842;2023-06-22T02:00:30;31.90;;;25.35;;
80541;SDS011;69870;51.460;8.842;2023-06-22T02:02:59;34.90;;;25.90;;
80541;SDS011;69870;51.460;8.842;2023-06-22T02:05:28;34.70;;;27.33;;
80541;SDS011;69870;51.460;8.842;2023-06-22T02:07:59;39.30;;;27.73;;
80541;SDS011;69870;51.460;8.842;2023-06-22T02:10:30;33.75;;;26.98;;
80541;SDS011;69870;51.460;8.842;2023-06-22T02:12:57;42.80;;;28.85;;
80541;SDS011;69870;51.460;8.842;2023-06-22T02:15:24;39.00;;;28.33;;
80541;SDS011;69870;51.460;8.842;2023-06-22T02:17:53;33.20;;;26.23;;
80541;SDS011;69870;51.460;8.842;2023-06-22T02:20:23;37.85;;;26.38;;
80541;SDS011;69870;51.460;8.842;2023-06-22T02:22:49;33.67;;;25.45;;
80541;SDS011;69870;51.460;8.842;2023-06-22T02:25:16;36.25;;;26.83;;
80541;SDS011;69870;51.460;8.842;2023-06-22T02:27:44;35.92;;;27.45;;
80541;SDS011;69870;51.460;8.842;2023-06-22T02:30:11;38.33;;;26.70;;
80541;SDS011;69870;51.460;8.842;2023-06-22T02:32:39;32.22;;;26.50;;
80541;SDS011;69870;51.460;8.842;2023-06-22T02:35:07;40.55;;;28.40;;
80541;SDS011;69870;51.460;8.842;2023-06-22T02:37:35;36.22;;;26.88;;
80541;SDS011;69870;51.460;8.842;2023-06-22T02:40:04;45.97;;;31.48;;
80541;SDS011;69870;51.460;8.842;2023-06-22T02:42:33;39.15;;;30.98;;
80541;SDS011;69870;51.460;8.842;2023-06-22T02:44:59;38.05;;;26.83;;
80541;SDS011;69870;51.460;8.842;2023-06-22T02:47:26;47.60;;;29.30;;
80541;SDS011;69870;51.460;8.842;2023-06-22T02:49:53;35.83;;;26.10;;
80541;SDS011;69870;51.460;8.842;2023-06-22T02:52:19;36.53;;;27.58;;
80541;SDS011;69870;51.460;8.842;2023-06-22T02:54:47;38.70;;;29.15;;
80541;SDS011;69870;51.460;8.842;2023-06-22T02:57:14;39.33;;;27.52;;
80541;SDS011;69870;51.460;8.842;2023-06-22T02:59:42;43.00;;;30.02;;
80541;SDS011;69870;51.460;8.842;2023-06-22T03:02:10;38.95;;;30.00;;
80541;SDS011;69870;51.460;8.842;2023-06-22T03:04:37;49.05;;;31.60;;
80541;SDS011;69870;51.460;8.842;2023-06-22T03:07:04;39.13;;;26.40;;
80541;SDS011;69870;51.460;8.842;2023-06-22T03:09:31;33.50;;;27.05;;
80541;SDS011;69870;51.460;8.842;2023-06-22T03:11:59;35.55;;;26.02;;
80541;SDS011;69870;51.460;8.842;2023-06-22T03:14:34;37.22;;;28.00;;
80541;SDS011;69870;51.460;8.842;2023-06-22T03:17:02;30.95;;;27.67;;
80541;SDS011;69870;51.460;8.842;2023-06-22T03:19:28;37.00;;;28.67;;
80541;SDS011;69870;51.460;8.842;2023-06-22T03:21:56;40.22;;;27.60;;
80541;SDS011;69870;51.460;8.842;2023-06-22T03:24:24;35.38;;;26.00;;
80541;SDS011;69870;51.460;8.842;2023-06-22T03:26:53;33.38;;;26.60;;
80541;SDS011;69870;51.460;8.842;2023-06-22T03:29:21;40.00;;;29.58;;
80541;SDS011;69870;51.460;8.842;2023-06-22T03:31:48;40.50;;;27.58;;
80541;SDS011;69870;51.460;8.842;2023-06-22T03:34:15;33.28;;;25.95;;
80541;SDS011;69870;51.460;8.842;2023-06-22T03:36:42;34.53;;;27.98;;
80541;SDS011;69870;51.460;8.842;2023-06-22T03:39:10;43.67;;;27.58;;
80541;SDS011;69870;51.460;8.842;2023-06-22T03:41:36;37.92;;;26.73;;
80541;SDS011;69870;51.460;8.842;2023-06-22T03:44:03;34.28;;;27.60;;
80541;SDS011;69870;51.460;8.842;2023-06-22T03:46:31;37.95;;;27.67;;
80541;SDS011;69870;51.460;8.842;2023-06-22T03:48:57;36.55;;;29.55;;
80541;SDS011;69870;51.460;8.842;2023-06-22T03:51:23;39.13;;;29.35;;
80541;SDS011;69870;51.460;8.842;2023-06-22T03:53:50;34.95;;;28.88;;
80541;SDS011;69870;51.460;8.842;2023-06-22T03:56:16;46.97;;;29.25;;
80541;SDS011;69870;51.460;8.842;2023-06-22T03:58:45;34.10;;;27.80;;
80541;SDS011;69870;51.460;8.842;2023-06-22T04:01:11;35.90;;;28.08;;
80541;SDS011;69870;51.460;8.842;2023-06-22T04:03:40;34.38;;;28.42;;
80541;SDS011;69870;51.460;8.842;2023-06-22T04:06:07;40.22;;;26.05;;
80541;SDS011;69870;51.460;8.842;2023-06-22T04:08:33;35.03;;;27.73;;
80541;SDS011;69870;51.460;8.842;2023-06-22T04:10:59;32.40;;;26.98;;
80541;SDS011;69870;51.460;8.842;2023-06-22T04:13:26;35.28;;;27.10;;
80541;SDS011;69870;51.460;8.842;2023-06-22T04:15:52;39.10;;;26.02;;
80541;SDS011;69870;51.460;8.842;2023-06-22T04:18:18;35.28;;;25.95;;
80541;SDS011;69870;51.460;8.842;2023-06-22T04:20:46;35.03;;;25.48;;
80541;SDS011;69870;51.460;8.842;2023-06-22T04:23:13;34.47;;;26.60;;
80541;SDS011;69870;51.460;8.842;2023-06-22T04:25:39;38.25;;;26.95;;
80541;SDS011;69870;51.460;8.842;2023-06-22T04:28:05;35.00;;;28.92;;
80541;SDS011;69870;51.460;8.842;2023-06-22T04:30:37;38.95;;;28.83;;
80541;SDS011;69870;51.460;8.842;2023-06-22T04:33:11;39.67;;;29.27;;
80541;SDS011;69870;51.460;8.842;2023-06-22T04:35:37;46.83;;;31.25;;
80541;SDS011;69870;51.460;8.842;2023-06-22T04:38:07;37.70;;;31.90;;
80541;SDS011;69870;51.460;8.842;2023-06-22T04:40:34;42.50;;;32.30;;
80541;SDS011;69870;51.460;8.842;2023-06-22T04:43:00;43.95;;;33.70;;
80541;SDS011;69870;51.460;8.842;2023-06-22T04:45:27;43.10;;;31.65;;
80541;SDS011;69870;51.460;8.842;2023-06-22T04:47:54;42.95;;;33.17;;
80541;SDS011;69870;51.460;8.842;2023-06-22T04:50:20;46.83;;;33.67;;
80541;SDS011;69870;51.460;8.842;2023-06-22T04:52:48;43.90;;;35.72;;
80541;SDS011;69870;51.460;8.842;2023-06-22T04:55:16;51.33;;;36.05;;
80541;SDS011;69870;51.460;8.842;2023-06-22T04:57:45;41.78;;;34.70;;
80541;SDS011;69870;51.460;8.842;2023-06-22T05:00:14;47.47;;;36.90;;
80541;SDS011;69870;51.460;8.842;2023-06-22T05:02:42;45.72;;;35.70;;
80541;SDS011;69870;51.460;8.842;2023-06-22T05:05:09;47.78;;;36.83;;
80541;SDS011;69870;51.460;8.842;2023-06-22T05:07:38;49.33;;;39.78;;
80541;SDS011;69870;51.460;8.842;2023-06-22T05:10:08;51.25;;;36.03;;
80541;SDS011;69870;51.460;8.842;2023-06-22T05:12:36;51.45;;;38.25;;
80541;SDS011;69870;51.460;8.842;2023-06-22T05:15:02;47.85;;;37.70;;
80541;SDS011;69870;51.460;8.842;2023-06-22T05:17:29;50.63;;;37.45;;
80541;SDS011;69870;51.460;8.842;2023-06-22T05:19:55;53.20;;;38.55;;
80541;SDS011;69870;51.460;8.842;2023-06-22T05:22:22;50.80;;;38.95;;
80541;SDS011;69870;51.460;8.842;2023-06-22T05:24:48;48.20;;;39.50;;
80541;SDS011;69870;51.460;8.842;2023-06-22T05:27:14;51.45;;;37.22;;
80541;SDS011;69870;51.460;8.842;2023-06-22T05:29:42;54.70;;;41.35;;
80541;SDS011;69870;51.460;8.842;2023-06-22T05:32:08;53.70;;;38.55;;
80541;SDS011;69870;51.460;8.842;2023-06-22T05:34:35;52.75;;;39.28;;
80541;SDS011;69870;51.460;8.842;2023-06-22T05:37:01;60.20;;;43.13;;
80541;SDS011;69870;51.460;8.842;2023-06-22T05:39:28;61.47;;;44.55;;
80541;SDS011;69870;51.460;8.842;2023-06-22T05:41:54;61.67;;;44.97;;
80541;SDS011;69870;51.460;8.842;2023-06-22T05:44:20;65.82;;;47.65;;
80541;SDS011;69870;51.460;8.842;2023-06-22T05:46:48;70.93;;;48.65;;
80541;SDS011;69870;51.460;8.842;2023-06-22T05:49:15;76.43;;;50.15;;
80541;SDS011;69870;51.460;8.842;2023-06-22T05:51:41;62.85;;;45.35;;
80541;SDS011;69870;51.460;8.842;2023-06-22T05:54:08;68.68;;;46.78;;
80541;SDS011;69870;51.460;8.842;2023-06-22T05:56:35;72.40;;;50.40;;
80541;SDS011;69870;51.460;8.842;2023-06-22T05:59:01;64.88;;;47.78;;
80541;SDS011;69870;51.460;8.842;2023-06-22T06:01:27;70.45;;;52.70;;
80541;SDS011;69870;51.460;8.842;2023-06-22T06:04:01;77.93;;;54.05;;
80541;SDS011;69870;51.460;8.842;2023-06-22T06:06:27;79.47;;;54.33;;
80541;SDS011;69870;51.460;8.842;2023-06-22T06:08:54;74.75;;;53.55;;
80541;SDS011;69870;51.460;8.842;2023-06-22T06:11:21;79.75;;;54.67;;
80541;SDS011;69870;51.460;8.842;2023-06-22T06:13:47;76.63;;;54.38;;
80541;SDS011;69870;51.460;8.842;2023-06-22T06:16:13;73.53;;;52.55;;
80541;SDS011;69870;51.460;8.842;2023-06-22T06:18:40;70.90;;;50.83;;
80541;SDS011;69870;51.460;8.842;2023-06-22T06:21:07;81.85;;;52.40;;
80541;SDS011;69870;51.460;8.842;2023-06-22T06:23:34;75.63;;;55.47;;
80541;SDS011;69870;51.460;8.842;2023-06-22T06:26:00;76.95;;;52.97;;
80541;SDS011;69870;51.460;8.842;2023-06-22T06:28:27;69.93;;;49.05;;
80541;SDS011;69870;51.460;8.842;2023-06-22T06:30:53;66.35;;;47.55;;
80541;SDS011;69870;51.460;8.842;2023-06-22T06:33:19;67.20;;;49.42;;
80541;SDS011;69870;51.460;8.842;2023-06-22T06:35:46;68.07;;;49.05;;
80541;SDS011;69870;51.460;8.842;2023-06-22T06:38:13;66.18;;;46.47;;
80541;SDS011;69870;51.460;8.842;2023-06-22T06:40:40;55.20;;;42.95;;
80541;SDS011;69870;51.460;8.842;2023-06-22T06:43:06;53.60;;;40.13;;
80541;SDS011;69870;51.460;8.842;2023-06-22T06:45:33;52.72;;;38.42;;
80541;SDS011;69870;51.460;8.842;2023-06-22T06:47:59;53.65;;;39.10;;
80541;SDS011;69870;51.460;8.842;2023-06-22T06:50:27;56.90;;;44.47;;
80541;SDS011;69870;51.460;8.842;2023-06-22T06:52:54;58.33;;;40.33;;
80541;SDS011;69870;51.460;8.842;2023-06-22T06:55:22;54.13;;;41.90;;
80541;SDS011;69870;51.460;8.842;2023-06-22T06:57:50;43.88;;;32.90;;
80541;SDS011;69870;51.460;8.842;2023-06-22T07:00:18;54.03;;;38.55;;
80541;SDS011;69870;51.460;8.842;2023-06-22T07:02:44;54.42;;;37.72;;
80541;SDS011;69870;51.460;8.842;2023-06-22T07:05:13;55.33;;;42.25;;
80541;SDS011;69870;51.460;8.842;2023-06-22T07:07:39;38.03;;;30.77;;
80541;SDS011;69870;51.460;8.842;2023-06-22T07:10:07;42.80;;;32.13;;
80541;SDS011;69870;51.460;8.842;2023-06-22T07:12:35;33.83;;;27.98;;
80541;SDS011;69870;51.460;8.842;2023-06-22T07:15:02;35.55;;;27.05;;
80541;SDS011;69870;51.460;8.842;2023-06-22T07:17:29;28.50;;;23.38;;
80541;SDS011;69870;51.460;8.842;2023-06-22T07:19:55;32.20;;;24.40;;
80541;SDS011;69870;51.460;8.842;2023-06-22T07:22:21;25.65;;;19.58;;
80541;SDS011;69870;51.460;8.842;2023-06-22T07:24:48;27.25;;;19.65;;
80541;SDS011;69870;51.460;8.842;2023-06-22T07:27:14;23.60;;;19.15;;
80541;SDS011;69870;51.460;8.842;2023-06-22T07:29:45;23.83;;;19.48;;
80541;SDS011;69870;51.460;8.842;2023-06-22T07:32:11;28.52;;;21.23;;
80541;SDS011;69870;51.460;8.842;2023-06-22T07:34:38;28.67;;;21.13;;
80541;SDS011;69870;51.460;8.842;2023-06-22T07:37:04;27.00;;;20.80;;
80541;SDS011;69870;51.460;8.842;2023-06-22T07:39:31;22.88;;;18.58;;
80541;SDS011;69870;51.460;8.842;2023-06-22T07:41:57;19.50;;;16.17;;
80541;SDS011;69870;51.460;8.842;2023-06-22T07:44:23;19.77;;;15.93;;
80541;SDS011;69870;51.460;8.842;2023-06-22T07:46:51;17.85;;;15.57;;
80541;SDS011;69870;51.460;8.842;2023-06-22T07:49:17;19.90;;;15.07;;
80541;SDS011;69870;51.460;8.842;2023-06-22T07:51:44;21.60;;;14.70;;
80541;SDS011;69870;51.460;8.842;2023-06-22T07:54:10;21.40;;;14.27;;
80541;SDS011;69870;51.460;8.842;2023-06-22T07:56:36;17.27;;;13.70;;
80541;SDS011;69870;51.460;8.842;2023-06-22T07:59:03;22.67;;;14.85;;
80541;SDS011;69870;51.460;8.842;2023-06-22T08:01:29;18.80;;;14.50;;
80541;SDS011;69870;51.460;8.842;2023-06-22T08:03:57;19.52;;;14.82;;
80541;SDS011;69870;51.460;8.842;2023-06-22T08:06:23;16.38;;;12.38;;
80541;SDS011;69870;51.460;8.842;2023-06-22T08:08:49;19.40;;;12.32;;
80541;SDS011;69870;51.460;8.842;2023-06-22T08:11:18;12.48;;;11.18;;
80541;SDS011;69870;51.460;8.842;2023-06-22T08:13:44;19.25;;;11.70;;
80541;SDS011;69870;51.460;8.842;2023-06-22T08:16:10;14.85;;;10.60;;
80541;SDS011;69870;51.460;8.842;2023-06-22T08:18:37;13.32;;;9.90;;
80541;SDS011;69870;51.460;8.842;2023-06-22T08:21:04;12.10;;;10.30;;
80541;SDS011;69870;51.460;8.842;2023-06-22T08:23:31;14.23;;;10.88;;
80541;SDS011;69870;51.460;8.842;2023-06-22T08:25:57;16.30;;;11.75;;
80541;SDS011;69870;51.460;8.842;2023-06-22T08:28:23;11.70;;;9.77;;
80541;SDS011;69870;51.460;8.842;2023-06-22T08:30:50;17.55;;;11.15;;
80541;SDS011;69870;51.460;8.842;2023-06-22T08:33:16;11.07;;;9.88;;
80541;SDS011;69870;51.460;8.842;2023-06-22T08:35:42;15.43;;;11.20;;
80541;SDS011;69870;51.460;8.842;2023-06-22T08:38:10;15.85;;;10.50;;
80541;SDS011;69870;51.460;8.842;2023-06-22T08:40:39;12.80;;;10.65;;
80541;SDS011;69870;51.460;8.842;2023-06-22T08:43:05;12.45;;;10.35;;
80541;SDS011;69870;51.460;8.842;2023-06-22T08:45:31;18.67;;;11.82;;
80541;SDS011;69870;51.460;8.842;2023-06-22T08:47:58;14.55;;;11.45;;
80541;SDS011;69870;51.460;8.842;2023-06-22T08:50:24;12.82;;;10.77;;
80541;SDS011;69870;51.460;8.842;2023-06-22T08:52:50;13.20;;;11.20;;
80541;SDS011;69870;51.460;8.842;2023-06-22T08:55:18;17.98;;;12.20;;
80541;SDS011;69870;51.460;8.842;2023-06-22T08:57:44;13.55;;;11.57;;
80541;SDS011;69870;51.460;8.842;2023-06-22T09:00:11;14.23;;;12.25;;
80541;SDS011;69870;51.460;8.842;2023-06-22T09:02:42;13.48;;;12.13;;
80541;SDS011;69870;51.460;8.842;2023-06-22T09:05:08;16.85;;;13.10;;
80541;SDS011;69870;51.460;8.842;2023-06-22T09:07:35;17.30;;;13.23;;
80541;SDS011;69870;51.460;8.842;2023-06-22T09:10:01;16.05;;;13.50;;
80541;SDS011;69870;51.460;8.842;2023-06-22T09:12:31;18.63;;;13.40;;
80541;SDS011;69870;51.460;8.842;2023-06-22T09:14:57;19.70;;;13.82;;
80541;SDS011;69870;51.460;8.842;2023-06-22T09:17:25;20.33;;;13.30;;
80541;SDS011;69870;51.460;8.842;2023-06-22T09:19:51;16.27;;;12.48;;
80541;SDS011;69870;51.460;8.842;2023-06-22T09:22:18;14.43;;;12.93;;
80541;SDS011;69870;51.460;8.842;2023-06-22T09:24:44;16.33;;;13.88;;
80541;SDS011;69870;51.460;8.842;2023-06-22T09:27:10;16.63;;;13.20;;
80541;SDS011;69870;51.460;8.842;2023-06-22T09:29:38;15.57;;;13.70;;
80541;SDS011;69870;51.460;8.842;2023-06-22T09:32:05;17.48;;;13.70;;
80541;SDS011;69870;51.460;8.842;2023-06-22T09:34:31;14.07;;;12.60;;
80541;SDS011;69870;51.460;8.842;2023-06-22T09:36:57;18.23;;;14.18;;
80541;SDS011;69870;51.460;8.842;2023-06-22T09:39:25;23.25;;;14.15;;
80541;SDS011;69870;51.460;8.842;2023-06-22T09:41:52;19.80;;;14.10;;
80541;SDS011;69870;51.460;8.842;2023-06-22T09:44:18;15.73;;;13.73;;
80541;SDS011;69870;51.460;8.842;2023-06-22T09:46:46;17.27;;;15.05;;
80541;SDS011;69870;51.460;8.842;2023-06-22T09:49:12;17.48;;;15.63;;
80541;SDS011;69870;51.460;8.842;2023-06-22T09:51:38;20.10;;;17.67;;
80541;SDS011;69870;51.460;8.842;2023-06-22T09:54:05;22.63;;;16.35;;
80541;SDS011;69870;51.460;8.842;2023-06-22T09:56:31;24.02;;;18.20;;
80541;SDS011;69870;51.460;8.842;2023-06-22T09:58:57;18.38;;;16.33;;
80541;SDS011;69870;51.460;8.842;2023-06-22T10:01:24;20.08;;;15.45;;
80541;SDS011;69870;51.460;8.842;2023-06-22T10:03:52;16.88;;;14.80;;
80541;SDS011;69870;51.460;8.842;2023-06-22T10:06:21;21.10;;;15.35;;
80541;SDS011;69870;51.460;8.842;2023-06-22T10:08:47;16.23;;;13.88;;
80541;SDS011;69870;51.460;8.842;2023-06-22T10:11:14;20.75;;;13.43;;
80541;SDS011;69870;51.460;8.842;2023-06-22T10:13:40;16.02;;;13.40;;
80541;SDS011;69870;51.460;8.842;2023-06-22T10:16:07;16.05;;;14.13;;
80541;SDS011;69870;51.460;8.842;2023-06-22T10:18:33;13.80;;;12.30;;
80541;SDS011;69870;51.460;8.842;2023-06-22T10:21:01;16.23;;;13.40;;
80541;SDS011;69870;51.460;8.842;2023-06-22T10:23:28;19.05;;;13.27;;
80541;SDS011;69870;51.460;8.842;2023-06-22T10:25:54;15.57;;;13.38;;
80541;SDS011;69870;51.460;8.842;2023-06-22T10:28:23;16.00;;;12.57;;
80541;SDS011;69870;51.460;8.842;2023-06-22T10:30:49;14.57;;;12.30;;
80541;SDS011;69870;51.460;8.842;2023-06-22T10:33:15;16.23;;;12.85;;
80541;SDS011;69870;51.460;8.842;2023-06-22T10:35:42;13.65;;;12.23;;
80541;SDS011;69870;51.460;8.842;2023-06-22T10:38:10;15.02;;;13.20;;
80541;SDS011;69870;51.460;8.842;2023-06-22T10:40:36;20.92;;;13.38;;
80541;SDS011;69870;51.460;8.842;2023-06-22T10:43:04;17.17;;;12.65;;
80541;SDS011;69870;51.460;8.842;2023-06-22T10:45:30;14.75;;;11.93;;
80541;SDS011;69870;51.460;8.842;2023-06-22T10:47:57;15.60;;;12.88;;
80541;SDS011;69870;51.460;8.842;2023-06-22T10:50:24;18.48;;;11.95;;
80541;SDS011;69870;51.460;8.842;2023-06-22T10:52:50;16.55;;;12.20;;
80541;SDS011;69870;51.460;8.842;2023-06-22T10:55:18;16.42;;;11.35;;
80541;SDS011;69870;51.460;8.842;2023-06-22T10:57:45;14.77;;;12.75;;
80541;SDS011;69870;51.460;8.842;2023-06-22T11:00:12;15.15;;;10.65;;
80541;SDS011;69870;51.460;8.842;2023-06-22T11:02:39;14.98;;;11.52;;
80541;SDS011;69870;51.460;8.842;2023-06-22T11:05:06;15.95;;;11.85;;
80541;SDS011;69870;51.460;8.842;2023-06-22T11:07:32;13.57;;;12.18;;
80541;SDS011;69870;51.460;8.842;2023-06-22T11:09:58;14.05;;;11.88;;
80541;SDS011;69870;51.460;8.842;2023-06-22T11:12:26;17.20;;;12.40;;
80541;SDS011;69870;51.460;8.842;2023-06-22T11:14:52;17.70;;;11.82;;
80541;SDS011;69870;51.460;8.842;2023-06-22T11:17:19;14.50;;;12.00;;
80541;SDS011;69870;51.460;8.842;2023-06-22T11:19:45;13.32;;;11.95;;
80541;SDS011;69870;51.460;8.842;2023-06-22T11:22:12;18.17;;;12.23;;
80541;SDS011;69870;51.460;8.842;2023-06-22T11:24:39;17.92;;;11.40;;
80541;SDS011;69870;51.460;8.842;2023-06-22T11:27:05;15.73;;;11.38;;
80541;SDS011;69870;51.460;8.842;2023-06-22T11:29:33;15.73;;;11.75;;
80541;SDS011;69870;51.460;8.842;2023-06-22T11:32:00;14.75;;;11.25;;
80541;SDS011;69870;51.460;8.842;2023-06-22T11:34:27;16.65;;;11.80;;
80541;SDS011;69870;51.460;8.842;2023-06-22T11:36:53;17.48;;;12.52;;
80541;SDS011;69870;51.460;8.842;2023-06-22T11:39:19;18.23;;;12.20;;
80541;SDS011;69870;51.460;8.842;2023-06-22T11:41:46;15.60;;;11.93;;
80541;SDS011;69870;51.460;8.842;2023-06-22T11:44:12;13.27;;;11.80;;
80541;SDS011;69870;51.460;8.842;2023-06-22T11:46:40;16.58;;;12.32;;
80541;SDS011;69870;51.460;8.842;2023-06-22T11:49:06;17.58;;;13.13;;
80541;SDS011;69870;51.460;8.842;2023-06-22T11:51:33;16.92;;;11.52;;
80541;SDS011;69870;51.460;8.842;2023-06-22T11:53:59;15.27;;;12.25;;
80541;SDS011;69870;51.460;8.842;2023-06-22T11:56:25;21.83;;;11.82;;
80541;SDS011;69870;51.460;8.842;2023-06-22T11:58:52;18.70;;;11.23;;
80541;SDS011;69870;51.460;8.842;2023-06-22T12:01:19;16.23;;;11.35;;
80541;SDS011;69870;51.460;8.842;2023-06-22T12:03:47;17.33;;;12.35;;
80541;SDS011;69870;51.460;8.842;2023-06-22T12:06:14;20.02;;;12.35;;
80541;SDS011;69870;51.460;8.842;2023-06-22T12:08:40;13.95;;;12.05;;
80541;SDS011;69870;51.460;8.842;2023-06-22T12:11:06;20.08;;;12.90;;
80541;SDS011;69870;51.460;8.842;2023-06-22T12:13:33;20.40;;;14.15;;
80541;SDS011;69870;51.460;8.842;2023-06-22T12:15:59;20.38;;;13.15;;
80541;SDS011;69870;51.460;8.842;2023-06-22T12:18:25;24.27;;;14.75;;
80541;SDS011;69870;51.460;8.842;2023-06-22T12:20:53;19.73;;;16.08;;
80541;SDS011;69870;51.460;8.842;2023-06-22T12:23:19;18.60;;;13.40;;
80541;SDS011;69870;51.460;8.842;2023-06-22T12:25:46;23.42;;;13.63;;
80541;SDS011;69870;51.460;8.842;2023-06-22T12:28:12;20.55;;;16.50;;
80541;SDS011;69870;51.460;8.842;2023-06-22T12:30:39;18.95;;;15.48;;
80541;SDS011;69870;51.460;8.842;2023-06-22T12:33:05;32.15;;;18.33;;
80541;SDS011;69870;51.460;8.842;2023-06-22T12:35:31;27.20;;;17.63;;
80541;SDS011;69870;51.460;8.842;2023-06-22T12:37:59;26.13;;;18.00;;
80541;SDS011;69870;51.460;8.842;2023-06-22T12:40:26;33.33;;;20.15;;
80541;SDS011;69870;51.460;8.842;2023-06-22T12:42:52;29.45;;;20.05;;
80541;SDS011;69870;51.460;8.842;2023-06-22T12:45:18;28.65;;;19.33;;
80541;SDS011;69870;51.460;8.842;2023-06-22T12:47:46;24.83;;;19.95;;
80541;SDS011;69870;51.460;8.842;2023-06-22T12:50:15;21.88;;;19.33;;
80541;SDS011;69870;51.460;8.842;2023-06-22T12:52:41;23.92;;;19.05;;
80541;SDS011;69870;51.460;8.842;2023-06-22T12:55:09;27.05;;;18.90;;
80541;SDS011;69870;51.460;8.842;2023-06-22T12:57:35;30.13;;;20.33;;
80541;SDS011;69870;51.460;8.842;2023-06-22T13:00:02;23.15;;;20.67;;
80541;SDS011;69870;51.460;8.842;2023-06-22T13:02:29;25.85;;;20.02;;
80541;SDS011;69870;51.460;8.842;2023-06-22T13:04:56;23.30;;;19.80;;
80541;SDS011;69870;51.460;8.842;2023-06-22T13:07:22;21.48;;;18.40;;
80541;SDS011;69870;51.460;8.842;2023-06-22T13:09:48;22.77;;;17.17;;
80541;SDS011;69870;51.460;8.842;2023-06-22T13:12:17;27.63;;;17.42;;
80541;SDS011;69870;51.460;8.842;2023-06-22T13:14:45;21.20;;;17.60;;
80541;SDS011;69870;51.460;8.842;2023-06-22T13:17:12;19.98;;;14.90;;
80541;SDS011;69870;51.460;8.842;2023-06-22T13:19:39;19.85;;;16.40;;
80541;SDS011;69870;51.460;8.842;2023-06-22T13:22:24;24.08;;;16.83;;
80541;SDS011;69870;51.460;8.842;2023-06-22T13:24:51;18.87;;;15.13;;
80541;SDS011;69870;51.460;8.842;2023-06-22T13:27:19;22.55;;;16.25;;
80541;SDS011;69870;51.460;8.842;2023-06-22T13:29:45;23.58;;;17.80;;
80541;SDS011;69870;51.460;8.842;2023-06-22T13:32:11;24.45;;;16.95;;
80541;SDS011;69870;51.460;8.842;2023-06-22T13:34:38;23.48;;;17.70;;
80541;SDS011;69870;51.460;8.842;2023-06-22T13:37:04;21.17;;;18.90;;
80541;SDS011;69870;51.460;8.842;2023-06-22T13:39:34;20.80;;;16.88;;
80541;SDS011;69870;51.460;8.842;2023-06-22T13:42:00;24.80;;;19.20;;
80541;SDS011;69870;51.460;8.842;2023-06-22T13:44:31;30.42;;;22.02;;
80541;SDS011;69870;51.460;8.842;2023-06-22T13:46:57;52.75;;;24.60;;
80541;SDS011;69870;51.460;8.842;2023-06-22T13:49:23;38.97;;;25.98;;
80541;SDS011;69870;51.460;8.842;2023-06-22T13:51:50;38.63;;;28.55;;
80541;SDS011;69870;51.460;8.842;2023-06-22T13:54:16;42.22;;;28.20;;
80541;SDS011;69870;51.460;8.842;2023-06-22T13:56:42;44.58;;;30.13;;
80541;SDS011;69870;51.460;8.842;2023-06-22T13:59:09;34.85;;;25.63;;
80541;SDS011;69870;51.460;8.842;2023-06-22T14:01:37;32.80;;;23.77;;
80541;SDS011;69870;51.460;8.842;2023-06-22T14:04:04;28.65;;;22.77;;
80541;SDS011;69870;51.460;8.842;2023-06-22T14:06:30;33.78;;;25.35;;
80541;SDS011;69870;51.460;8.842;2023-06-22T14:08:56;34.25;;;25.75;;
80541;SDS011;69870;51.460;8.842;2023-06-22T14:11:24;35.13;;;26.08;;
80541;SDS011;69870;51.460;8.842;2023-06-22T14:13:50;34.00;;;28.27;;
80541;SDS011;69870;51.460;8.842;2023-06-22T14:16:17;36.60;;;27.45;;
80541;SDS011;69870;51.460;8.842;2023-06-22T14:18:45;34.47;;;27.85;;
80541;SDS011;69870;51.460;8.842;2023-06-22T14:21:11;47.65;;;30.92;;